Azul Libero — 9VMU5 — position and weather

sailwx.info

Track history (hours):
 
Tides and Currents Weather Stations Pressure Air Temp Water Temp Dewpoint Dewpoint Depression Visibility Wind Speed Wind Dir Waves Ship Positions

Azul Libero

Last reported at 2018-Jul-13 04:56 UTC. Time now 2018-Jul-22 22:08 UTC.
Position N 34°42' E 139°34'.
Warning: this ship's position is 9 days out of date.

Length 300 m; beam 50 m.

Type: Cargo ship. MMSI: 564690000.

Date/timePositionNaut miles runAvg speedWind from/ knotsBaromVisibWave heightAir tempDewpointWater temp
2018-Jul-13 04:56N 34°42' E 139°34'717.1
2018-Jul-13 04:31N 34°48' E 139°38'713.7
2018-Jul-13 04:00N 34°55' E 139°40'713.4
2018-Jul-13 03:30N 35°01' E 139°42'713.8
2018-Jul-13 03:00N 35°08' E 139°45'611.3
2018-Jul-13 02:30N 35°13' E 139°47'612.3
2018-Jul-13 02:00N 35°19' E 139°43'612.2
2018-Jul-13 01:30N 35°25' E 139°44'714.6
2018-Jul-13 01:00N 35°29' E 139°51'714.0
2018-Jul-13 00:30N 35°33' E 139°59'510.2
2018-Jul-13 00:00N 35°35' E 140°04'  
2018-Jul-07 04:07N 35°35' E 140°03'1 8.6
2018-Jul-07 03:59N 35°34' E 140°02'4 8.1
2018-Jul-07 03:30N 35°32' E 139°58'1 2.2
2018-Jul-07 02:55N 35°32' E 139°56'0 0.1
2018-Jul-07 02:28N 35°32' E 139°56'0 0.0
2018-Jul-07 01:58N 35°32' E 139°56'0 0.1
2018-Jul-07 01:22N 35°32' E 139°56'0 0.0
2018-Jul-07 00:58N 35°32' E 139°56'0 0.0
2018-Jul-07 00:28N 35°32' E 139°56'0 0.0
2018-Jul-06 23:55N 35°32' E 139°56'0 0.0
2018-Jul-06 23:28N 35°32' E 139°56'0 0.0
2018-Jul-06 22:52N 35°32' E 139°56'0 0.0
2018-Jul-06 22:28N 35°32' E 139°56'0 0.2
2018-Jul-06 21:52N 35°32' E 139°56'0 0.3
2018-Jul-06 21:28N 35°32' E 139°56'0 0.2
2018-Jul-06 20:52N 35°32' E 139°56'0 0.1
2018-Jul-06 19:52N 35°32' E 139°56'0 0.1
2018-Jul-06 19:01N 35°32' E 139°56'0 0.0
2018-Jul-06 18:58N 35°32' E 139°56'0 0.0
2018-Jul-06 18:28N 35°32' E 139°56'0 0.0
2018-Jul-06 17:58N 35°32' E 139°56'0 0.0
2018-Jul-06 15:22N 35°32' E 139°56'0 0.0
2018-Jul-06 14:58N 35°32' E 139°56'0 0.0
2018-Jul-06 14:25N 35°32' E 139°56'0 0.0
2018-Jul-06 13:55N 35°32' E 139°56'0 0.1
2018-Jul-06 12:52N 35°32' E 139°56'0 0.0
2018-Jul-06 12:28N 35°32' E 139°56'0 0.0
2018-Jul-06 09:19N 35°32' E 139°56'0 0.0
2018-Jul-06 08:55N 35°32' E 139°56'0 0.0
2018-Jul-06 06:40N 35°32' E 139°56'0 0.0
2018-Jul-06 06:30N 35°32' E 139°56'0 0.0
2018-Jul-06 06:00N 35°32' E 139°56'0 0.0
2018-Jul-06 04:47N 35°32' E 139°56'0 0.2
2018-Jul-06 04:30N 35°32' E 139°56'0 0.0
2018-Jul-06 04:00N 35°32' E 139°56'0 0.0
2018-Jul-06 03:31N 35°32' E 139°56'0 0.0
2018-Jul-06 03:00N 35°32' E 139°56'0 0.1
2018-Jul-06 02:30N 35°32' E 139°56'3 6.0
2018-Jul-06 02:01N 35°30' E 139°53'611.2
2018-Jul-06 01:30N 35°26' E 139°48'612.0
2018-Jul-06 01:00N 35°21' E 139°45'510.5
2018-Jul-06 00:30N 35°16' E 139°47'611.0
2018-Jul-06 00:00N 35°10' E 139°47'4 8.1
2018-Jul-05 23:30N 35°06' E 139°46'5 9.3
2018-Jul-05 23:00N 35°02' E 139°43'3 6.9
2018-Jul-05 22:30N 34°59' E 139°41'4 8.0
2018-Jul-05 22:00N 34°55' E 139°41'4 8.8
2018-Jul-05 21:30N 34°51' E 139°41'8 8.8
2018-Jul-05 20:38N 34°44' E 139°44'  
Track history (hours):
 
Tides and Currents Weather Stations Pressure Air Temp Water Temp Dewpoint Dewpoint Depression Visibility Wind Speed Wind Dir Waves Ship Positions

Azul Libero

Last reported at 2018-Jul-13 04:56 UTC. Time now 2018-Jul-22 22:08 UTC.
Position N 34°42' E 139°34'.
Warning: this ship's position is 9 days out of date.

Length 300 m; beam 50 m.

Type: Cargo ship. MMSI: 564690000.

Date/timePositionNaut miles runAvg speedWind from/ knotsBaromVisibWave heightAir tempDewpointWater temp
2018-Jul-13 04:56N 34°42' E 139°34'717.1
2018-Jul-13 04:31N 34°48' E 139°38'713.7
2018-Jul-13 04:00N 34°55' E 139°40'713.4
2018-Jul-13 03:30N 35°01' E 139°42'713.8
2018-Jul-13 03:00N 35°08' E 139°45'611.3
2018-Jul-13 02:30N 35°13' E 139°47'612.3
2018-Jul-13 02:00N 35°19' E 139°43'612.2
2018-Jul-13 01:30N 35°25' E 139°44'714.6
2018-Jul-13 01:00N 35°29' E 139°51'714.0
2018-Jul-13 00:30N 35°33' E 139°59'510.2
2018-Jul-13 00:00N 35°35' E 140°04'  
2018-Jul-07 04:07N 35°35' E 140°03'1 8.6
2018-Jul-07 03:59N 35°34' E 140°02'4 8.1
2018-Jul-07 03:30N 35°32' E 139°58'1 2.2
2018-Jul-07 02:55N 35°32' E 139°56'0 0.1
2018-Jul-07 02:28N 35°32' E 139°56'0 0.0
2018-Jul-07 01:58N 35°32' E 139°56'0 0.1
2018-Jul-07 01:22N 35°32' E 139°56'0 0.0
2018-Jul-07 00:58N 35°32' E 139°56'0 0.0
2018-Jul-07 00:28N 35°32' E 139°56'0 0.0
2018-Jul-06 23:55N 35°32' E 139°56'0 0.0
2018-Jul-06 23:28N 35°32' E 139°56'0 0.0
2018-Jul-06 22:52N 35°32' E 139°56'0 0.0
2018-Jul-06 22:28N 35°32' E 139°56'0 0.2
2018-Jul-06 21:52N 35°32' E 139°56'0 0.3
2018-Jul-06 21:28N 35°32' E 139°56'0 0.2
2018-Jul-06 20:52N 35°32' E 139°56'0 0.1
2018-Jul-06 19:52N 35°32' E 139°56'0 0.1
2018-Jul-06 19:01N 35°32' E 139°56'0 0.0
2018-Jul-06 18:58N 35°32' E 139°56'0 0.0
2018-Jul-06 18:28N 35°32' E 139°56'0 0.0
2018-Jul-06 17:58N 35°32' E 139°56'0 0.0
2018-Jul-06 15:22N 35°32' E 139°56'0 0.0
2018-Jul-06 14:58N 35°32' E 139°56'0 0.0
2018-Jul-06 14:25N 35°32' E 139°56'0 0.0
2018-Jul-06 13:55N 35°32' E 139°56'0 0.1
2018-Jul-06 12:52N 35°32' E 139°56'0 0.0
2018-Jul-06 12:28N 35°32' E 139°56'0 0.0
2018-Jul-06 09:19N 35°32' E 139°56'0 0.0
2018-Jul-06 08:55N 35°32' E 139°56'0 0.0
2018-Jul-06 06:40N 35°32' E 139°56'0 0.0
2018-Jul-06 06:30N 35°32' E 139°56'0 0.0
2018-Jul-06 06:00N 35°32' E 139°56'0 0.0
2018-Jul-06 04:47N 35°32' E 139°56'0 0.2
2018-Jul-06 04:30N 35°32' E 139°56'0 0.0
2018-Jul-06 04:00N 35°32' E 139°56'0 0.0
2018-Jul-06 03:31N 35°32' E 139°56'0 0.0
2018-Jul-06 03:00N 35°32' E 139°56'0 0.1
2018-Jul-06 02:30N 35°32' E 139°56'3 6.0
2018-Jul-06 02:01N 35°30' E 139°53'611.2
2018-Jul-06 01:30N 35°26' E 139°48'612.0
2018-Jul-06 01:00N 35°21' E 139°45'510.5
2018-Jul-06 00:30N 35°16' E 139°47'611.0
2018-Jul-06 00:00N 35°10' E 139°47'4 8.1
2018-Jul-05 23:30N 35°06' E 139°46'5 9.3
2018-Jul-05 23:00N 35°02' E 139°43'3 6.9
2018-Jul-05 22:30N 34°59' E 139°41'4 8.0
2018-Jul-05 22:00N 34°55' E 139°41'4 8.8
2018-Jul-05 21:30N 34°51' E 139°41'8 8.8
2018-Jul-05 20:38N 34°44' E 139°44'  

Dump ship's entire track history